Fort Lauderdale Executive Airport
KFXE : now visible

Airfield :











YOU CAN JOIN US ON...

 
LOGIN :

Register | Disclaimer

   EN    FR    IT 

 









Legend :    VFR   Marginal VFR   IFR   Intensive IFR   Very Intensive IFR
Visi :
Ceiling :
>= 8 km
>= 3000ft
5 to 8 km
1000 to 3000 ft
1500m to 5 km
500 to 1000 ft
800 to 1500m
200 to 500 ft
< 800m
< 200 ft
Symbols :   Thunderstorms  Fog  Heavy snow  Heavy precipitations  Wind > 20 kt






- Airport Elevation : 13 ft


KFXE - Fort Lauderdale Executive

CURRENT METAR :
  • 231153Z 05004KT 1SM RA BR BKN017 BKN027 OVC028 22/21 A2996 RMK AO2 RAB00 SLP148 P0031 60034 7//// T02220211 10244 20222 53017 $

EXPIRED METARs :
  • 231143Z 07014G23KT 1SM +RA BR BKN017 BKN027 OVC100 22/21 A2996 RMK AO2 RAB00 P0026 T02220211 $
  • 231053Z 36003KT 10SM FEW025 SCT041 BKN049 24/23 A2994 RMK AO2 SLP141 T02390228 $
  • 230953Z AUTO 34004KT 10SM CLR 24/23 A2993 RMK AO2 SLP137 T02390228 TSNO $
  • 230853Z AUTO 00000KT 10SM FEW049 24/23 A2991 RMK AO2 SLP131 P0003 60003 T02390233 58011 TSNO $

TAF KFXE
Valid from the 23 at 12:00 until the 24 at 12:00 UTC


231135Z 2312/2412 VRB05KT P6SM VCTS SCT025CB BKN060
FM231500 05008KT P6SM VCTS SCT025CB BKN060
FM240000 06003KT P6SM VCSH SCT025 BKN050
KZMA FIR / North America



MET'MAP, your aeronautical weather chart ! - Copyright ORBIFLY December 2007 - Disclaimer

ORBIFLY MET'MAP TEAM :

Programming & Development : Alexandra Zaïnal
Concept & original design : Baudouin d'Aumeries
Assistance for programming : Marc-Olivier Méhu
Technical & hardware support : Manuel Goepfert

Contact : metmap@orbifly.com




SOURCES & CREDITS :

   NOAA       Earth
Advisory